sensor_id;sensor_type;location;lat;lon;timestamp;temperature;humidity
19829;DHT22;10075;50.924;4.396;2024-03-08T00:01:17;6.60;99.90
19829;DHT22;10075;50.924;4.396;2024-03-08T00:03:44;6.60;99.90
19829;DHT22;10075;50.924;4.396;2024-03-08T00:06:11;6.60;99.90
19829;DHT22;10075;50.924;4.396;2024-03-08T00:08:38;6.50;99.90
19829;DHT22;10075;50.924;4.396;2024-03-08T00:11:07;6.50;99.90
19829;DHT22;10075;50.924;4.396;2024-03-08T00:13:34;6.50;99.90
19829;DHT22;10075;50.924;4.396;2024-03-08T00:16:02;6.50;99.90
19829;DHT22;10075;50.924;4.396;2024-03-08T00:18:29;6.40;99.90
19829;DHT22;10075;50.924;4.396;2024-03-08T00:20:56;6.40;99.90
19829;DHT22;10075;50.924;4.396;2024-03-08T00:23:23;6.40;99.90
19829;DHT22;10075;50.924;4.396;2024-03-08T00:25:50;6.40;99.90
19829;DHT22;10075;50.924;4.396;2024-03-08T00:28:19;6.40;99.90
19829;DHT22;10075;50.924;4.396;2024-03-08T00:30:46;6.30;99.90
19829;DHT22;10075;50.924;4.396;2024-03-08T00:33:13;6.30;99.90
19829;DHT22;10075;50.924;4.396;2024-03-08T00:35:40;6.30;99.90
19829;DHT22;10075;50.924;4.396;2024-03-08T00:38:07;6.30;99.90
19829;DHT22;10075;50.924;4.396;2024-03-08T00:40:34;6.20;99.90
19829;DHT22;10075;50.924;4.396;2024-03-08T00:43:01;6.20;99.90
19829;DHT22;10075;50.924;4.396;2024-03-08T00:45:31;6.20;99.90
19829;DHT22;10075;50.924;4.396;2024-03-08T00:47:58;6.20;99.90
19829;DHT22;10075;50.924;4.396;2024-03-08T00:50:26;6.20;99.90
19829;DHT22;10075;50.924;4.396;2024-03-08T00:52:53;6.20;99.90
19829;DHT22;10075;50.924;4.396;2024-03-08T00:55:20;6.20;99.90
19829;DHT22;10075;50.924;4.396;2024-03-08T00:57:47;6.10;99.90
19829;DHT22;10075;50.924;4.396;2024-03-08T01:00:14;6.10;99.90
19829;DHT22;10075;50.924;4.396;2024-03-08T01:02:43;6.10;99.90
19829;DHT22;10075;50.924;4.396;2024-03-08T01:05:11;6.10;99.90
19829;DHT22;10075;50.924;4.396;2024-03-08T01:07:38;6.10;99.90
19829;DHT22;10075;50.924;4.396;2024-03-08T01:10:06;6.00;99.90
19829;DHT22;10075;50.924;4.396;2024-03-08T01:12:35;6.00;99.90
19829;DHT22;10075;50.924;4.396;2024-03-08T01:15:02;6.00;99.90
19829;DHT22;10075;50.924;4.396;2024-03-08T01:17:29;6.00;99.90
19829;DHT22;10075;50.924;4.396;2024-03-08T01:19:58;6.00;99.90
19829;DHT22;10075;50.924;4.396;2024-03-08T01:22:25;6.00;99.90
19829;DHT22;10075;50.924;4.396;2024-03-08T01:24:53;6.00;99.90
19829;DHT22;10075;50.924;4.396;2024-03-08T01:27:20;6.00;99.90
19829;DHT22;10075;50.924;4.396;2024-03-08T01:29:48;6.00;99.90
19829;DHT22;10075;50.924;4.396;2024-03-08T01:32:15;6.00;99.90
19829;DHT22;10075;50.924;4.396;2024-03-08T01:34:42;5.90;99.90
19829;DHT22;10075;50.924;4.396;2024-03-08T01:37:12;5.90;99.90
19829;DHT22;10075;50.924;4.396;2024-03-08T01:39:40;5.90;99.90
19829;DHT22;10075;50.924;4.396;2024-03-08T01:42:07;5.90;99.90
19829;DHT22;10075;50.924;4.396;2024-03-08T01:44:34;5.90;99.90
19829;DHT22;10075;50.924;4.396;2024-03-08T01:47:01;5.90;99.90
19829;DHT22;10075;50.924;4.396;2024-03-08T01:49:28;5.80;99.90
19829;DHT22;10075;50.924;4.396;2024-03-08T01:51:56;5.80;99.90
19829;DHT22;10075;50.924;4.396;2024-03-08T01:54:24;5.80;99.90
19829;DHT22;10075;50.924;4.396;2024-03-08T01:56:53;5.80;99.90
19829;DHT22;10075;50.924;4.396;2024-03-08T01:59:20;5.70;99.90
19829;DHT22;10075;50.924;4.396;2024-03-08T02:01:47;5.70;99.90
19829;DHT22;10075;50.924;4.396;2024-03-08T02:04:14;5.70;99.90
19829;DHT22;10075;50.924;4.396;2024-03-08T02:06:45;5.70;99.90
19829;DHT22;10075;50.924;4.396;2024-03-08T02:09:12;5.70;99.90
19829;DHT22;10075;50.924;4.396;2024-03-08T02:11:41;5.70;99.90
19829;DHT22;10075;50.924;4.396;2024-03-08T02:14:08;5.70;99.90
19829;DHT22;10075;50.924;4.396;2024-03-08T02:16:37;5.60;99.90
19829;DHT22;10075;50.924;4.396;2024-03-08T02:19:05;5.70;99.90
19829;DHT22;10075;50.924;4.396;2024-03-08T02:21:36;5.60;99.90
19829;DHT22;10075;50.924;4.396;2024-03-08T02:24:04;5.60;99.90
19829;DHT22;10075;50.924;4.396;2024-03-08T02:26:31;5.70;99.90
19829;DHT22;10075;50.924;4.396;2024-03-08T02:28:58;5.60;99.90
19829;DHT22;10075;50.924;4.396;2024-03-08T02:31:25;5.60;99.90
19829;DHT22;10075;50.924;4.396;2024-03-08T02:33:52;5.60;99.90
19829;DHT22;10075;50.924;4.396;2024-03-08T02:36:20;5.60;99.90
19829;DHT22;10075;50.924;4.396;2024-03-08T02:38:48;5.50;99.90
19829;DHT22;10075;50.924;4.396;2024-03-08T02:41:15;5.50;99.90
19829;DHT22;10075;50.924;4.396;2024-03-08T02:43:42;5.50;99.90
19829;DHT22;10075;50.924;4.396;2024-03-08T02:46:11;5.50;99.90
19829;DHT22;10075;50.924;4.396;2024-03-08T02:48:38;5.40;99.90
19829;DHT22;10075;50.924;4.396;2024-03-08T02:51:05;5.40;99.90
19829;DHT22;10075;50.924;4.396;2024-03-08T02:53:32;5.40;99.90
19829;DHT22;10075;50.924;4.396;2024-03-08T02:56:02;5.50;99.90
19829;DHT22;10075;50.924;4.396;2024-03-08T02:58:30;5.40;99.90
19829;DHT22;10075;50.924;4.396;2024-03-08T03:00:57;5.30;99.90
19829;DHT22;10075;50.924;4.396;2024-03-08T03:03:24;5.30;99.90
19829;DHT22;10075;50.924;4.396;2024-03-08T03:05:52;5.30;99.90
19829;DHT22;10075;50.924;4.396;2024-03-08T03:08:21;5.30;99.90
19829;DHT22;10075;50.924;4.396;2024-03-08T03:10:48;5.30;99.90
19829;DHT22;10075;50.924;4.396;2024-03-08T03:13:16;5.20;99.90
19829;DHT22;10075;50.924;4.396;2024-03-08T03:15:46;5.20;99.90
19829;DHT22;10075;50.924;4.396;2024-03-08T03:18:13;5.20;99.90
19829;DHT22;10075;50.924;4.396;2024-03-08T03:20:41;5.20;99.90
19829;DHT22;10075;50.924;4.396;2024-03-08T03:23:08;5.20;99.90
19829;DHT22;10075;50.924;4.396;2024-03-08T03:25:39;5.20;99.90
19829;DHT22;10075;50.924;4.396;2024-03-08T03:28:07;5.20;99.90
19829;DHT22;10075;50.924;4.396;2024-03-08T03:30:37;5.20;99.90
19829;DHT22;10075;50.924;4.396;2024-03-08T03:33:04;5.10;99.90
19829;DHT22;10075;50.924;4.396;2024-03-08T03:35:32;5.10;99.90
19829;DHT22;10075;50.924;4.396;2024-03-08T03:38:00;5.10;99.90
19829;DHT22;10075;50.924;4.396;2024-03-08T03:40:32;5.10;99.90
19829;DHT22;10075;50.924;4.396;2024-03-08T03:43:00;5.10;99.90
19829;DHT22;10075;50.924;4.396;2024-03-08T03:45:27;5.00;99.90
19829;DHT22;10075;50.924;4.396;2024-03-08T03:47:55;5.00;99.90
19829;DHT22;10075;50.924;4.396;2024-03-08T03:50:22;5.00;99.90
19829;DHT22;10075;50.924;4.396;2024-03-08T03:52:50;5.00;99.90
19829;DHT22;10075;50.924;4.396;2024-03-08T03:55:18;5.00;99.90
19829;DHT22;10075;50.924;4.396;2024-03-08T03:57:45;4.90;99.90
19829;DHT22;10075;50.924;4.396;2024-03-08T04:00:13;4.90;99.90
19829;DHT22;10075;50.924;4.396;2024-03-08T04:02:41;4.90;99.90
19829;DHT22;10075;50.924;4.396;2024-03-08T04:05:10;4.90;99.90
19829;DHT22;10075;50.924;4.396;2024-03-08T04:07:38;4.90;99.90
19829;DHT22;10075;50.924;4.396;2024-03-08T04:10:07;4.80;99.90
19829;DHT22;10075;50.924;4.396;2024-03-08T04:12:34;4.80;99.90
19829;DHT22;10075;50.924;4.396;2024-03-08T04:15:01;4.80;99.90
19829;DHT22;10075;50.924;4.396;2024-03-08T04:17:29;4.80;99.90
19829;DHT22;10075;50.924;4.396;2024-03-08T04:19:56;4.80;99.90
19829;DHT22;10075;50.924;4.396;2024-03-08T04:22:24;4.70;99.90
19829;DHT22;10075;50.924;4.396;2024-03-08T04:24:51;4.70;99.90
19829;DHT22;10075;50.924;4.396;2024-03-08T04:27:18;4.70;99.90
19829;DHT22;10075;50.924;4.396;2024-03-08T04:29:45;4.70;99.90
19829;DHT22;10075;50.924;4.396;2024-03-08T04:32:12;4.60;99.90
19829;DHT22;10075;50.924;4.396;2024-03-08T04:34:39;4.70;99.90
19829;DHT22;10075;50.924;4.396;2024-03-08T04:37:06;4.70;99.90
19829;DHT22;10075;50.924;4.396;2024-03-08T04:39:37;4.70;99.90
19829;DHT22;10075;50.924;4.396;2024-03-08T04:42:05;4.60;99.90
19829;DHT22;10075;50.924;4.396;2024-03-08T04:44:36;4.70;99.90
19829;DHT22;10075;50.924;4.396;2024-03-08T04:47:03;4.60;99.90
19829;DHT22;10075;50.924;4.396;2024-03-08T04:49:31;4.60;99.90
19829;DHT22;10075;50.924;4.396;2024-03-08T04:52:01;4.60;99.90
19829;DHT22;10075;50.924;4.396;2024-03-08T04:54:28;4.60;99.90
19829;DHT22;10075;50.924;4.396;2024-03-08T04:56:57;4.60;99.90
19829;DHT22;10075;50.924;4.396;2024-03-08T04:59:25;4.50;99.90
19829;DHT22;10075;50.924;4.396;2024-03-08T05:01:53;4.50;99.90
19829;DHT22;10075;50.924;4.396;2024-03-08T05:04:20;4.50;99.90
19829;DHT22;10075;50.924;4.396;2024-03-08T05:06:48;4.50;99.90
19829;DHT22;10075;50.924;4.396;2024-03-08T05:09:18;4.50;99.90
19829;DHT22;10075;50.924;4.396;2024-03-08T05:11:46;4.50;99.90
19829;DHT22;10075;50.924;4.396;2024-03-08T05:14:15;4.50;99.90
19829;DHT22;10075;50.924;4.396;2024-03-08T05:16:43;4.40;99.90
19829;DHT22;10075;50.924;4.396;2024-03-08T05:19:14;4.50;99.90
19829;DHT22;10075;50.924;4.396;2024-03-08T05:21:42;4.40;99.90
19829;DHT22;10075;50.924;4.396;2024-03-08T05:24:09;4.30;99.90
19829;DHT22;10075;50.924;4.396;2024-03-08T05:26:36;4.30;99.90
19829;DHT22;10075;50.924;4.396;2024-03-08T05:29:04;4.40;99.90
19829;DHT22;10075;50.924;4.396;2024-03-08T05:31:42;4.40;99.90
19829;DHT22;10075;50.924;4.396;2024-03-08T05:34:12;4.30;99.90
19829;DHT22;10075;50.924;4.396;2024-03-08T05:36:40;4.30;99.90
19829;DHT22;10075;50.924;4.396;2024-03-08T05:39:07;4.30;99.90
19829;DHT22;10075;50.924;4.396;2024-03-08T05:41:36;4.30;99.90
19829;DHT22;10075;50.924;4.396;2024-03-08T05:44:04;4.30;99.90
19829;DHT22;10075;50.924;4.396;2024-03-08T05:46:32;4.20;99.90
19829;DHT22;10075;50.924;4.396;2024-03-08T05:48:59;4.20;99.90
19829;DHT22;10075;50.924;4.396;2024-03-08T05:51:31;4.30;99.90
19829;DHT22;10075;50.924;4.396;2024-03-08T05:54:00;4.30;99.90
19829;DHT22;10075;50.924;4.396;2024-03-08T05:56:28;4.30;99.90
19829;DHT22;10075;50.924;4.396;2024-03-08T05:58:56;4.30;99.90
19829;DHT22;10075;50.924;4.396;2024-03-08T06:01:23;4.30;99.90
19829;DHT22;10075;50.924;4.396;2024-03-08T06:03:52;4.30;99.90
19829;DHT22;10075;50.924;4.396;2024-03-08T06:06:21;4.30;99.90
19829;DHT22;10075;50.924;4.396;2024-03-08T06:08:49;4.20;99.90
19829;DHT22;10075;50.924;4.396;2024-03-08T06:11:16;4.20;99.90
19829;DHT22;10075;50.924;4.396;2024-03-08T06:13:44;4.30;99.90
19829;DHT22;10075;50.924;4.396;2024-03-08T06:16:12;4.30;99.90
19829;DHT22;10075;50.924;4.396;2024-03-08T06:18:39;4.30;99.90
19829;DHT22;10075;50.924;4.396;2024-03-08T06:21:08;4.20;99.90
19829;DHT22;10075;50.924;4.396;2024-03-08T06:23:37;4.20;99.90
19829;DHT22;10075;50.924;4.396;2024-03-08T06:26:13;4.20;99.90
19829;DHT22;10075;50.924;4.396;2024-03-08T06:28:40;4.20;99.90
19829;DHT22;10075;50.924;4.396;2024-03-08T06:31:07;4.20;99.90
19829;DHT22;10075;50.924;4.396;2024-03-08T06:33:36;4.30;99.90
19829;DHT22;10075;50.924;4.396;2024-03-08T06:36:04;4.30;99.90
19829;DHT22;10075;50.924;4.396;2024-03-08T06:38:32;4.30;99.90
19829;DHT22;10075;50.924;4.396;2024-03-08T06:41:00;4.30;99.90
19829;DHT22;10075;50.924;4.396;2024-03-08T06:43:29;4.40;99.90
19829;DHT22;10075;50.924;4.396;2024-03-08T06:45:59;4.40;99.90
19829;DHT22;10075;50.924;4.396;2024-03-08T06:48:27;4.40;99.90
19829;DHT22;10075;50.924;4.396;2024-03-08T06:50:55;4.20;99.90
19829;DHT22;10075;50.924;4.396;2024-03-08T06:53:22;4.30;99.90
19829;DHT22;10075;50.924;4.396;2024-03-08T06:55:52;4.40;99.90
19829;DHT22;10075;50.924;4.396;2024-03-08T06:58:19;4.50;99.90
19829;DHT22;10075;50.924;4.396;2024-03-08T07:00:46;4.50;99.90
19829;DHT22;10075;50.924;4.396;2024-03-08T07:03:17;4.60;99.90
19829;DHT22;10075;50.924;4.396;2024-03-08T07:05:45;4.70;99.90
19829;DHT22;10075;50.924;4.396;2024-03-08T07:08:12;4.70;99.90
19829;DHT22;10075;50.924;4.396;2024-03-08T07:10:39;4.60;99.90
19829;DHT22;10075;50.924;4.396;2024-03-08T07:13:08;4.60;99.90
19829;DHT22;10075;50.924;4.396;2024-03-08T07:15:36;4.70;99.90
19829;DHT22;10075;50.924;4.396;2024-03-08T07:18:03;4.70;99.90
19829;DHT22;10075;50.924;4.396;2024-03-08T07:20:30;4.60;99.90
19829;DHT22;10075;50.924;4.396;2024-03-08T07:22:57;4.70;99.90
19829;DHT22;10075;50.924;4.396;2024-03-08T07:25:25;4.80;99.90
19829;DHT22;10075;50.924;4.396;2024-03-08T07:27:56;4.90;99.90
19829;DHT22;10075;50.924;4.396;2024-03-08T07:30:25;5.00;99.90
19829;DHT22;10075;50.924;4.396;2024-03-08T07:33:09;5.00;99.90
19829;DHT22;10075;50.924;4.396;2024-03-08T07:35:37;4.90;99.90
19829;DHT22;10075;50.924;4.396;2024-03-08T07:38:05;4.70;99.90
19829;DHT22;10075;50.924;4.396;2024-03-08T07:40:33;4.70;99.90
19829;DHT22;10075;50.924;4.396;2024-03-08T07:43:01;4.70;99.90
19829;DHT22;10075;50.924;4.396;2024-03-08T07:45:30;4.90;99.90
19829;DHT22;10075;50.924;4.396;2024-03-08T07:47:57;4.70;99.90
19829;DHT22;10075;50.924;4.396;2024-03-08T07:50:24;4.70;99.90
19829;DHT22;10075;50.924;4.396;2024-03-08T07:52:51;4.80;99.90
19829;DHT22;10075;50.924;4.396;2024-03-08T07:55:18;4.90;99.90
19829;DHT22;10075;50.924;4.396;2024-03-08T07:59:42;5.20;99.90
19829;DHT22;10075;50.924;4.396;2024-03-08T08:02:09;5.20;99.90
19829;DHT22;10075;50.924;4.396;2024-03-08T08:04:36;5.20;99.90
19829;DHT22;10075;50.924;4.396;2024-03-08T08:07:04;5.30;99.90
19829;DHT22;10075;50.924;4.396;2024-03-08T08:09:32;5.40;99.90
19829;DHT22;10075;50.924;4.396;2024-03-08T08:12:01;5.40;99.90
19829;DHT22;10075;50.924;4.396;2024-03-08T08:14:29;5.40;99.90
19829;DHT22;10075;50.924;4.396;2024-03-08T08:16:57;5.30;99.90
19829;DHT22;10075;50.924;4.396;2024-03-08T08:19:29;5.40;99.90
19829;DHT22;10075;50.924;4.396;2024-03-08T08:21:57;5.50;99.90
19829;DHT22;10075;50.924;4.396;2024-03-08T08:24:24;5.50;99.90
19829;DHT22;10075;50.924;4.396;2024-03-08T08:26:52;5.60;99.90
19829;DHT22;10075;50.924;4.396;2024-03-08T08:29:19;5.60;99.90
19829;DHT22;10075;50.924;4.396;2024-03-08T08:31:46;5.70;99.90
19829;DHT22;10075;50.924;4.396;2024-03-08T08:34:16;5.80;99.90
19829;DHT22;10075;50.924;4.396;2024-03-08T08:36:45;6.10;99.90
19829;DHT22;10075;50.924;4.396;2024-03-08T08:39:12;6.10;99.90
19829;DHT22;10075;50.924;4.396;2024-03-08T08:41:39;6.10;99.90
19829;DHT22;10075;50.924;4.396;2024-03-08T08:44:07;6.20;99.90
19829;DHT22;10075;50.924;4.396;2024-03-08T08:46:36;6.30;99.90
19829;DHT22;10075;50.924;4.396;2024-03-08T08:49:03;6.40;99.90
19829;DHT22;10075;50.924;4.396;2024-03-08T08:51:32;6.60;99.90
19829;DHT22;10075;50.924;4.396;2024-03-08T08:53:59;6.70;99.90
19829;DHT22;10075;50.924;4.396;2024-03-08T08:56:26;6.70;99.90
19829;DHT22;10075;50.924;4.396;2024-03-08T08:58:54;6.80;99.90
19829;DHT22;10075;50.924;4.396;2024-03-08T09:01:21;7.00;99.90
19829;DHT22;10075;50.924;4.396;2024-03-08T09:03:48;7.10;99.90
19829;DHT22;10075;50.924;4.396;2024-03-08T09:06:15;7.30;99.90
19829;DHT22;10075;50.924;4.396;2024-03-08T09:08:45;7.20;99.90
19829;DHT22;10075;50.924;4.396;2024-03-08T09:11:12;7.30;99.90
19829;DHT22;10075;50.924;4.396;2024-03-08T09:13:39;7.40;99.90
19829;DHT22;10075;50.924;4.396;2024-03-08T09:16:06;7.30;99.90
19829;DHT22;10075;50.924;4.396;2024-03-08T09:18:36;7.40;99.90
19829;DHT22;10075;50.924;4.396;2024-03-08T09:21:04;7.30;99.90
19829;DHT22;10075;50.924;4.396;2024-03-08T09:23:35;7.30;99.90
19829;DHT22;10075;50.924;4.396;2024-03-08T09:26:04;7.40;99.90
19829;DHT22;10075;50.924;4.396;2024-03-08T09:28:32;7.40;99.90
19829;DHT22;10075;50.924;4.396;2024-03-08T09:30:59;7.50;99.90
19829;DHT22;10075;50.924;4.396;2024-03-08T09:33:27;7.70;99.90
19829;DHT22;10075;50.924;4.396;2024-03-08T09:35:54;7.80;99.90
19829;DHT22;10075;50.924;4.396;2024-03-08T09:38:23;7.80;99.90
19829;DHT22;10075;50.924;4.396;2024-03-08T09:40:51;7.90;99.90
19829;DHT22;10075;50.924;4.396;2024-03-08T09:43:20;7.70;99.90
19829;DHT22;10075;50.924;4.396;2024-03-08T09:45:49;7.80;99.90
19829;DHT22;10075;50.924;4.396;2024-03-08T09:48:17;8.00;99.90
19829;DHT22;10075;50.924;4.396;2024-03-08T09:50:46;8.00;99.90
19829;DHT22;10075;50.924;4.396;2024-03-08T09:53:13;8.00;99.90
19829;DHT22;10075;50.924;4.396;2024-03-08T09:55:41;8.00;99.90
19829;DHT22;10075;50.924;4.396;2024-03-08T09:58:12;8.00;99.90
19829;DHT22;10075;50.924;4.396;2024-03-08T10:01:04;8.00;99.90
19829;DHT22;10075;50.924;4.396;2024-03-08T10:03:32;8.20;99.90
19829;DHT22;10075;50.924;4.396;2024-03-08T10:05:59;8.30;99.90
19829;DHT22;10075;50.924;4.396;2024-03-08T10:08:27;8.40;99.90
19829;DHT22;10075;50.924;4.396;2024-03-08T10:10:55;8.40;99.90
19829;DHT22;10075;50.924;4.396;2024-03-08T10:13:25;8.60;99.90
19829;DHT22;10075;50.924;4.396;2024-03-08T10:15:53;8.80;99.90
19829;DHT22;10075;50.924;4.396;2024-03-08T10:18:22;9.00;99.90
19829;DHT22;10075;50.924;4.396;2024-03-08T10:21:03;9.00;99.90
19829;DHT22;10075;50.924;4.396;2024-03-08T10:23:31;9.10;99.90
19829;DHT22;10075;50.924;4.396;2024-03-08T10:26:09;9.30;99.90
19829;DHT22;10075;50.924;4.396;2024-03-08T10:28:36;9.70;99.90
19829;DHT22;10075;50.924;4.396;2024-03-08T10:31:04;9.70;99.90
19829;DHT22;10075;50.924;4.396;2024-03-08T10:33:33;9.80;99.90
19829;DHT22;10075;50.924;4.396;2024-03-08T10:36:00;9.90;99.90
19829;DHT22;10075;50.924;4.396;2024-03-08T10:38:31;9.70;99.90
19829;DHT22;10075;50.924;4.396;2024-03-08T10:41:00;9.90;99.90
19829;DHT22;10075;50.924;4.396;2024-03-08T10:43:31;9.90;99.90
19829;DHT22;10075;50.924;4.396;2024-03-08T10:46:12;9.90;99.90
19829;DHT22;10075;50.924;4.396;2024-03-08T10:48:45;10.00;99.90
19829;DHT22;10075;50.924;4.396;2024-03-08T10:51:14;10.00;99.90
19829;DHT22;10075;50.924;4.396;2024-03-08T10:53:42;9.80;99.90
19829;DHT22;10075;50.924;4.396;2024-03-08T10:56:11;9.90;99.90
19829;DHT22;10075;50.924;4.396;2024-03-08T10:58:41;9.90;99.90
19829;DHT22;10075;50.924;4.396;2024-03-08T11:01:10;10.00;99.90
19829;DHT22;10075;50.924;4.396;2024-03-08T11:03:48;10.00;99.90
19829;DHT22;10075;50.924;4.396;2024-03-08T11:06:21;10.20;99.90
19829;DHT22;10075;50.924;4.396;2024-03-08T11:08:49;10.10;99.90
19829;DHT22;10075;50.924;4.396;2024-03-08T11:11:31;10.20;99.90
19829;DHT22;10075;50.924;4.396;2024-03-08T11:14:00;10.40;99.90
19829;DHT22;10075;50.924;4.396;2024-03-08T11:16:41;10.50;99.90
19829;DHT22;10075;50.924;4.396;2024-03-08T11:19:26;10.60;99.90
19829;DHT22;10075;50.924;4.396;2024-03-08T11:22:01;10.60;99.90
19829;DHT22;10075;50.924;4.396;2024-03-08T11:24:37;10.90;99.90
19829;DHT22;10075;50.924;4.396;2024-03-08T11:27:08;10.60;99.90
19829;DHT22;10075;50.924;4.396;2024-03-08T11:29:36;10.70;99.90
19829;DHT22;10075;50.924;4.396;2024-03-08T11:32:07;10.50;99.90
19829;DHT22;10075;50.924;4.396;2024-03-08T11:34:37;10.50;99.90
19829;DHT22;10075;50.924;4.396;2024-03-08T11:37:05;10.60;99.90
19829;DHT22;10075;50.924;4.396;2024-03-08T11:39:35;10.80;99.90
19829;DHT22;10075;50.924;4.396;2024-03-08T11:42:04;10.90;99.90
19829;DHT22;10075;50.924;4.396;2024-03-08T11:44:32;10.80;99.90
19829;DHT22;10075;50.924;4.396;2024-03-08T11:46:59;10.80;99.90
19829;DHT22;10075;50.924;4.396;2024-03-08T11:49:26;10.80;99.90
19829;DHT22;10075;50.924;4.396;2024-03-08T11:51:55;10.90;99.90
19829;DHT22;10075;50.924;4.396;2024-03-08T11:54:23;11.00;99.90
19829;DHT22;10075;50.924;4.396;2024-03-08T11:56:52;11.10;99.90
19829;DHT22;10075;50.924;4.396;2024-03-08T11:59:20;11.20;99.90
19829;DHT22;10075;50.924;4.396;2024-03-08T12:02:01;11.40;99.90
19829;DHT22;10075;50.924;4.396;2024-03-08T12:04:29;11.70;99.90
19829;DHT22;10075;50.924;4.396;2024-03-08T12:06:59;11.50;99.90
19829;DHT22;10075;50.924;4.396;2024-03-08T12:09:27;11.50;99.90
19829;DHT22;10075;50.924;4.396;2024-03-08T12:11:54;11.60;99.90
19829;DHT22;10075;50.924;4.396;2024-03-08T12:14:21;11.60;99.90
19829;DHT22;10075;50.924;4.396;2024-03-08T12:16:51;11.60;99.90
19829;DHT22;10075;50.924;4.396;2024-03-08T12:19:18;11.60;99.90
19829;DHT22;10075;50.924;4.396;2024-03-08T12:21:46;11.70;99.90
19829;DHT22;10075;50.924;4.396;2024-03-08T12:27:21;11.60;99.90
19829;DHT22;10075;50.924;4.396;2024-03-08T12:29:49;11.70;99.90
19829;DHT22;10075;50.924;4.396;2024-03-08T12:32:16;11.70;99.90
19829;DHT22;10075;50.924;4.396;2024-03-08T12:34:52;11.50;99.90
19829;DHT22;10075;50.924;4.396;2024-03-08T12:37:19;11.50;99.90
19829;DHT22;10075;50.924;4.396;2024-03-08T12:39:46;11.40;99.90
19829;DHT22;10075;50.924;4.396;2024-03-08T12:42:13;11.50;99.90
19829;DHT22;10075;50.924;4.396;2024-03-08T12:44:42;11.50;99.90
19829;DHT22;10075;50.924;4.396;2024-03-08T12:47:09;11.60;99.90
19829;DHT22;10075;50.924;4.396;2024-03-08T12:49:36;11.70;99.90
19829;DHT22;10075;50.924;4.396;2024-03-08T12:52:03;11.80;99.90
19829;DHT22;10075;50.924;4.396;2024-03-08T12:54:35;11.70;99.90
19829;DHT22;10075;50.924;4.396;2024-03-08T12:57:02;11.80;99.90
19829;DHT22;10075;50.924;4.396;2024-03-08T12:59:30;11.90;99.90
19829;DHT22;10075;50.924;4.396;2024-03-08T13:01:58;12.20;99.90
19829;DHT22;10075;50.924;4.396;2024-03-08T13:04:28;12.10;99.90
19829;DHT22;10075;50.924;4.396;2024-03-08T13:06:56;12.10;99.90
19829;DHT22;10075;50.924;4.396;2024-03-08T13:09:24;12.30;99.90
19829;DHT22;10075;50.924;4.396;2024-03-08T13:11:53;12.50;99.90
19829;DHT22;10075;50.924;4.396;2024-03-08T13:14:21;12.40;99.90
19829;DHT22;10075;50.924;4.396;2024-03-08T13:16:48;12.30;99.90
19829;DHT22;10075;50.924;4.396;2024-03-08T13:19:18;12.50;99.90
19829;DHT22;10075;50.924;4.396;2024-03-08T13:21:47;12.60;99.90
19829;DHT22;10075;50.924;4.396;2024-03-08T13:24:14;12.40;99.90
19829;DHT22;10075;50.924;4.396;2024-03-08T13:26:42;12.30;99.90
19829;DHT22;10075;50.924;4.396;2024-03-08T13:29:10;12.40;99.90
19829;DHT22;10075;50.924;4.396;2024-03-08T13:31:37;12.70;99.90
19829;DHT22;10075;50.924;4.396;2024-03-08T13:34:05;13.00;99.90
19829;DHT22;10075;50.924;4.396;2024-03-08T13:36:33;13.30;99.90
19829;DHT22;10075;50.924;4.396;2024-03-08T13:39:07;13.40;99.90
19829;DHT22;10075;50.924;4.396;2024-03-08T13:41:40;13.50;99.90
19829;DHT22;10075;50.924;4.396;2024-03-08T13:44:08;13.50;99.90
19829;DHT22;10075;50.924;4.396;2024-03-08T13:46:35;13.50;99.90
19829;DHT22;10075;50.924;4.396;2024-03-08T13:49:04;13.40;99.90
19829;DHT22;10075;50.924;4.396;2024-03-08T13:51:36;13.40;99.90
19829;DHT22;10075;50.924;4.396;2024-03-08T13:54:04;13.20;99.90
19829;DHT22;10075;50.924;4.396;2024-03-08T13:56:32;13.40;99.90
19829;DHT22;10075;50.924;4.396;2024-03-08T13:58:59;13.50;99.90
19829;DHT22;10075;50.924;4.396;2024-03-08T14:01:27;13.40;99.90
19829;DHT22;10075;50.924;4.396;2024-03-08T14:03:55;13.30;99.90
19829;DHT22;10075;50.924;4.396;2024-03-08T14:06:23;13.30;99.90
19829;DHT22;10075;50.924;4.396;2024-03-08T14:08:52;13.50;99.90
19829;DHT22;10075;50.924;4.396;2024-03-08T14:11:22;13.60;99.90
19829;DHT22;10075;50.924;4.396;2024-03-08T14:13:49;13.70;99.90
19829;DHT22;10075;50.924;4.396;2024-03-08T14:16:16;13.70;99.90
19829;DHT22;10075;50.924;4.396;2024-03-08T14:18:43;13.70;99.90
19829;DHT22;10075;50.924;4.396;2024-03-08T14:21:10;13.90;99.90
19829;DHT22;10075;50.924;4.396;2024-03-08T14:23:40;13.80;99.90
19829;DHT22;10075;50.924;4.396;2024-03-08T14:26:09;13.80;99.90
19829;DHT22;10075;50.924;4.396;2024-03-08T14:28:36;14.10;99.90
19829;DHT22;10075;50.924;4.396;2024-03-08T14:31:04;14.20;99.90
19829;DHT22;10075;50.924;4.396;2024-03-08T14:33:36;14.10;99.90
19829;DHT22;10075;50.924;4.396;2024-03-08T14:36:04;14.30;99.90
19829;DHT22;10075;50.924;4.396;2024-03-08T14:38:32;14.30;99.90
19829;DHT22;10075;50.924;4.396;2024-03-08T14:41:00;14.20;99.90
19829;DHT22;10075;50.924;4.396;2024-03-08T14:43:30;14.40;99.90
19829;DHT22;10075;50.924;4.396;2024-03-08T14:45:58;14.50;99.90
19829;DHT22;10075;50.924;4.396;2024-03-08T14:48:25;14.50;99.90
19829;DHT22;10075;50.924;4.396;2024-03-08T14:50:52;14.30;99.90
19829;DHT22;10075;50.924;4.396;2024-03-08T14:53:19;14.30;99.90
19829;DHT22;10075;50.924;4.396;2024-03-08T14:55:46;14.40;99.90
19829;DHT22;10075;50.924;4.396;2024-03-08T14:58:13;14.50;99.90
19829;DHT22;10075;50.924;4.396;2024-03-08T15:00:42;14.60;99.90
19829;DHT22;10075;50.924;4.396;2024-03-08T15:03:09;14.40;99.90
19829;DHT22;10075;50.924;4.396;2024-03-08T15:05:39;14.30;99.90
19829;DHT22;10075;50.924;4.396;2024-03-08T15:08:10;14.20;99.90
19829;DHT22;10075;50.924;4.396;2024-03-08T15:10:45;14.30;99.90
19829;DHT22;10075;50.924;4.396;2024-03-08T15:13:13;14.40;99.90
19829;DHT22;10075;50.924;4.396;2024-03-08T15:15:50;14.60;99.90
19829;DHT22;10075;50.924;4.396;2024-03-08T15:18:21;15.10;99.90
19829;DHT22;10075;50.924;4.396;2024-03-08T15:20:52;15.60;99.90
19829;DHT22;10075;50.924;4.396;2024-03-08T15:23:19;16.10;99.90
19829;DHT22;10075;50.924;4.396;2024-03-08T15:25:47;16.80;99.60
19829;DHT22;10075;50.924;4.396;2024-03-08T15:28:15;17.30;98.90
19829;DHT22;10075;50.924;4.396;2024-03-08T15:30:45;17.70;97.70
19829;DHT22;10075;50.924;4.396;2024-03-08T15:33:18;18.20;96.80
19829;DHT22;10075;50.924;4.396;2024-03-08T15:35:52;18.90;95.60
19829;DHT22;10075;50.924;4.396;2024-03-08T15:38:24;18.90;94.90
19829;DHT22;10075;50.924;4.396;2024-03-08T15:40:53;19.00;94.70
19829;DHT22;10075;50.924;4.396;2024-03-08T15:43:20;19.60;94.20
19829;DHT22;10075;50.924;4.396;2024-03-08T15:45:47;19.30;94.00
19829;DHT22;10075;50.924;4.396;2024-03-08T15:48:15;19.30;93.90
19829;DHT22;10075;50.924;4.396;2024-03-08T15:50:44;19.60;93.20
19829;DHT22;10075;50.924;4.396;2024-03-08T15:53:11;19.50;93.50
19829;DHT22;10075;50.924;4.396;2024-03-08T15:55:40;19.60;93.20